sensor_id;sensor_type;location;lat;lon;timestamp;P1;durP1;ratioP1;P2;durP2;ratioP2
13445;SDS011;6795;51.232;3.764;2023-02-13T00:01:23;44.53;;;23.10;;
13445;SDS011;6795;51.232;3.764;2023-02-13T00:03:51;44.05;;;23.88;;
13445;SDS011;6795;51.232;3.764;2023-02-13T00:06:20;45.28;;;23.70;;
13445;SDS011;6795;51.232;3.764;2023-02-13T00:08:49;49.28;;;23.95;;
13445;SDS011;6795;51.232;3.764;2023-02-13T00:11:18;42.33;;;23.05;;
13445;SDS011;6795;51.232;3.764;2023-02-13T00:13:47;45.10;;;22.88;;
13445;SDS011;6795;51.232;3.764;2023-02-13T00:16:15;44.83;;;23.73;;
13445;SDS011;6795;51.232;3.764;2023-02-13T00:18:44;48.33;;;24.65;;
13445;SDS011;6795;51.232;3.764;2023-02-13T00:21:12;52.00;;;24.25;;
13445;SDS011;6795;51.232;3.764;2023-02-13T00:23:41;45.30;;;24.70;;
13445;SDS011;6795;51.232;3.764;2023-02-13T00:26:11;46.17;;;24.77;;
13445;SDS011;6795;51.232;3.764;2023-02-13T00:28:42;50.80;;;24.33;;
13445;SDS011;6795;51.232;3.764;2023-02-13T00:31:12;44.78;;;23.65;;
13445;SDS011;6795;51.232;3.764;2023-02-13T00:33:42;47.25;;;25.10;;
13445;SDS011;6795;51.232;3.764;2023-02-13T00:36:12;45.53;;;24.60;;
13445;SDS011;6795;51.232;3.764;2023-02-13T00:38:41;50.35;;;26.65;;
13445;SDS011;6795;51.232;3.764;2023-02-13T00:41:11;51.80;;;28.10;;
13445;SDS011;6795;51.232;3.764;2023-02-13T00:43:42;45.80;;;24.73;;
13445;SDS011;6795;51.232;3.764;2023-02-13T00:46:11;58.05;;;30.73;;
13445;SDS011;6795;51.232;3.764;2023-02-13T00:48:39;50.60;;;25.88;;
13445;SDS011;6795;51.232;3.764;2023-02-13T00:51:08;47.40;;;24.00;;
13445;SDS011;6795;51.232;3.764;2023-02-13T00:53:38;45.25;;;23.80;;
13445;SDS011;6795;51.232;3.764;2023-02-13T00:56:06;43.65;;;23.73;;
13445;SDS011;6795;51.232;3.764;2023-02-13T00:58:37;45.08;;;24.10;;
13445;SDS011;6795;51.232;3.764;2023-02-13T01:01:05;48.28;;;24.63;;
13445;SDS011;6795;51.232;3.764;2023-02-13T01:03:34;42.13;;;23.20;;
13445;SDS011;6795;51.232;3.764;2023-02-13T01:06:02;45.08;;;23.52;;
13445;SDS011;6795;51.232;3.764;2023-02-13T01:08:32;44.03;;;24.83;;
13445;SDS011;6795;51.232;3.764;2023-02-13T01:11:00;43.78;;;23.70;;
13445;SDS011;6795;51.232;3.764;2023-02-13T01:13:29;48.47;;;23.98;;
13445;SDS011;6795;51.232;3.764;2023-02-13T01:15:59;44.10;;;22.67;;
13445;SDS011;6795;51.232;3.764;2023-02-13T01:18:28;50.17;;;23.95;;
13445;SDS011;6795;51.232;3.764;2023-02-13T01:20:57;53.13;;;25.67;;
13445;SDS011;6795;51.232;3.764;2023-02-13T01:23:31;45.03;;;22.13;;
13445;SDS011;6795;51.232;3.764;2023-02-13T01:26:02;46.35;;;23.42;;
13445;SDS011;6795;51.232;3.764;2023-02-13T01:28:32;44.00;;;22.73;;
13445;SDS011;6795;51.232;3.764;2023-02-13T01:31:03;48.58;;;23.95;;
13445;SDS011;6795;51.232;3.764;2023-02-13T01:33:32;44.55;;;23.00;;
13445;SDS011;6795;51.232;3.764;2023-02-13T01:36:04;46.22;;;23.98;;
13445;SDS011;6795;51.232;3.764;2023-02-13T01:38:34;48.40;;;24.55;;
13445;SDS011;6795;51.232;3.764;2023-02-13T01:41:02;47.05;;;23.48;;
13445;SDS011;6795;51.232;3.764;2023-02-13T01:43:48;46.88;;;23.77;;
13445;SDS011;6795;51.232;3.764;2023-02-13T01:46:20;49.53;;;23.67;;
13445;SDS011;6795;51.232;3.764;2023-02-13T01:48:56;49.95;;;23.15;;
13445;SDS011;6795;51.232;3.764;2023-02-13T01:51:29;51.22;;;24.83;;
13445;SDS011;6795;51.232;3.764;2023-02-13T01:54:02;50.20;;;24.92;;
13445;SDS011;6795;51.232;3.764;2023-02-13T01:56:35;52.88;;;25.90;;
13445;SDS011;6795;51.232;3.764;2023-02-13T01:59:06;49.72;;;24.55;;
13445;SDS011;6795;51.232;3.764;2023-02-13T02:01:40;48.13;;;23.75;;
13445;SDS011;6795;51.232;3.764;2023-02-13T02:04:09;53.92;;;25.63;;
13445;SDS011;6795;51.232;3.764;2023-02-13T02:06:41;53.67;;;25.60;;
13445;SDS011;6795;51.232;3.764;2023-02-13T02:09:13;57.00;;;26.05;;
13445;SDS011;6795;51.232;3.764;2023-02-13T02:11:47;54.40;;;26.98;;
13445;SDS011;6795;51.232;3.764;2023-02-13T02:14:21;58.17;;;26.88;;
13445;SDS011;6795;51.232;3.764;2023-02-13T02:16:51;60.05;;;27.17;;
13445;SDS011;6795;51.232;3.764;2023-02-13T02:19:23;56.38;;;27.42;;
13445;SDS011;6795;51.232;3.764;2023-02-13T02:22:18;59.90;;;28.23;;
13445;SDS011;6795;51.232;3.764;2023-02-13T02:25:29;62.50;;;29.45;;
13445;SDS011;6795;51.232;3.764;2023-02-13T02:28:16;65.30;;;33.50;;
13445;SDS011;6795;51.232;3.764;2023-02-13T02:34:23;67.20;;;36.60;;
13445;SDS011;6795;51.232;3.764;2023-02-13T02:37:04;71.90;;;39.47;;
13445;SDS011;6795;51.232;3.764;2023-02-13T02:39:44;72.10;;;40.25;;
13445;SDS011;6795;51.232;3.764;2023-02-13T02:42:23;71.07;;;39.53;;
13445;SDS011;6795;51.232;3.764;2023-02-13T02:44:59;73.22;;;39.40;;
13445;SDS011;6795;51.232;3.764;2023-02-13T02:47:38;77.13;;;39.17;;
13445;SDS011;6795;51.232;3.764;2023-02-13T02:50:33;76.43;;;40.17;;
13445;SDS011;6795;51.232;3.764;2023-02-13T02:53:16;72.93;;;39.92;;
13445;SDS011;6795;51.232;3.764;2023-02-13T02:55:51;79.10;;;41.45;;
13445;SDS011;6795;51.232;3.764;2023-02-13T02:58:27;81.20;;;42.92;;
13445;SDS011;6795;51.232;3.764;2023-02-13T03:01:20;87.15;;;42.88;;
13445;SDS011;6795;51.232;3.764;2023-02-13T03:04:12;85.60;;;44.78;;
13445;SDS011;6795;51.232;3.764;2023-02-13T03:07:04;92.78;;;44.08;;
13445;SDS011;6795;51.232;3.764;2023-02-13T03:09:36;92.32;;;45.72;;
13445;SDS011;6795;51.232;3.764;2023-02-13T03:12:28;96.40;;;46.65;;
13445;SDS011;6795;51.232;3.764;2023-02-13T03:15:20;105.30;;;47.47;;
13445;SDS011;6795;51.232;3.764;2023-02-13T03:17:52;118.60;;;51.03;;
13445;SDS011;6795;51.232;3.764;2023-02-13T03:20:41;120.47;;;52.28;;
13445;SDS011;6795;51.232;3.764;2023-02-13T03:23:37;115.70;;;51.50;;
13445;SDS011;6795;51.232;3.764;2023-02-13T03:26:20;132.43;;;52.92;;
13445;SDS011;6795;51.232;3.764;2023-02-13T03:29:13;138.23;;;55.95;;
13445;SDS011;6795;51.232;3.764;2023-02-13T03:32:09;138.98;;;59.20;;
13445;SDS011;6795;51.232;3.764;2023-02-13T03:34:48;146.00;;;58.95;;
13445;SDS011;6795;51.232;3.764;2023-02-13T03:37:43;163.77;;;63.23;;
13445;SDS011;6795;51.232;3.764;2023-02-13T03:40:25;163.13;;;63.37;;
13445;SDS011;6795;51.232;3.764;2023-02-13T03:43:02;154.20;;;61.78;;
13445;SDS011;6795;51.232;3.764;2023-02-13T03:45:37;155.38;;;60.50;;
13445;SDS011;6795;51.232;3.764;2023-02-13T03:48:23;171.38;;;62.60;;
13445;SDS011;6795;51.232;3.764;2023-02-13T03:51:13;183.83;;;69.10;;
13445;SDS011;6795;51.232;3.764;2023-02-13T03:53:46;199.93;;;71.47;;
13445;SDS011;6795;51.232;3.764;2023-02-13T03:56:19;190.50;;;72.50;;
13445;SDS011;6795;51.232;3.764;2023-02-13T03:59:08;189.90;;;69.70;;
13445;SDS011;6795;51.232;3.764;2023-02-13T04:01:45;190.07;;;69.47;;
13445;SDS011;6795;51.232;3.764;2023-02-13T04:04:22;202.60;;;74.05;;
13445;SDS011;6795;51.232;3.764;2023-02-13T04:06:56;201.23;;;70.53;;
13445;SDS011;6795;51.232;3.764;2023-02-13T04:09:31;211.43;;;77.53;;
13445;SDS011;6795;51.232;3.764;2023-02-13T04:12:05;213.10;;;76.87;;
13445;SDS011;6795;51.232;3.764;2023-02-13T04:14:39;180.55;;;71.90;;
13445;SDS011;6795;51.232;3.764;2023-02-13T04:17:14;209.40;;;76.93;;
13445;SDS011;6795;51.232;3.764;2023-02-13T04:19:46;222.33;;;78.53;;
13445;SDS011;6795;51.232;3.764;2023-02-13T04:22:15;220.77;;;75.83;;
13445;SDS011;6795;51.232;3.764;2023-02-13T04:24:45;224.20;;;77.90;;
13445;SDS011;6795;51.232;3.764;2023-02-13T04:27:13;231.83;;;81.00;;
13445;SDS011;6795;51.232;3.764;2023-02-13T04:29:43;246.07;;;81.27;;
13445;SDS011;6795;51.232;3.764;2023-02-13T04:32:11;245.93;;;83.47;;
13445;SDS011;6795;51.232;3.764;2023-02-13T04:34:40;266.27;;;85.20;;
13445;SDS011;6795;51.232;3.764;2023-02-13T04:37:09;269.40;;;86.43;;
13445;SDS011;6795;51.232;3.764;2023-02-13T04:39:38;269.60;;;90.93;;
13445;SDS011;6795;51.232;3.764;2023-02-13T04:42:08;270.87;;;87.03;;
13445;SDS011;6795;51.232;3.764;2023-02-13T04:44:36;265.30;;;88.33;;
13445;SDS011;6795;51.232;3.764;2023-02-13T04:47:04;284.07;;;91.70;;
13445;SDS011;6795;51.232;3.764;2023-02-13T04:49:33;275.03;;;88.53;;
13445;SDS011;6795;51.232;3.764;2023-02-13T04:52:01;284.67;;;89.37;;
13445;SDS011;6795;51.232;3.764;2023-02-13T04:54:30;282.47;;;92.00;;
13445;SDS011;6795;51.232;3.764;2023-02-13T04:56:58;296.25;;;93.20;;
13445;SDS011;6795;51.232;3.764;2023-02-13T04:59:28;319.13;;;98.17;;
13445;SDS011;6795;51.232;3.764;2023-02-13T05:01:57;304.53;;;94.43;;
13445;SDS011;6795;51.232;3.764;2023-02-13T05:04:26;313.43;;;95.23;;
13445;SDS011;6795;51.232;3.764;2023-02-13T05:06:55;296.97;;;93.27;;
13445;SDS011;6795;51.232;3.764;2023-02-13T05:09:23;302.73;;;95.57;;
13445;SDS011;6795;51.232;3.764;2023-02-13T05:11:52;285.05;;;90.07;;
13445;SDS011;6795;51.232;3.764;2023-02-13T05:14:21;290.30;;;92.50;;
13445;SDS011;6795;51.232;3.764;2023-02-13T05:16:51;285.83;;;90.93;;
13445;SDS011;6795;51.232;3.764;2023-02-13T05:19:19;292.00;;;94.90;;
13445;SDS011;6795;51.232;3.764;2023-02-13T05:21:48;300.23;;;94.13;;
13445;SDS011;6795;51.232;3.764;2023-02-13T05:24:34;291.07;;;91.80;;
13445;SDS011;6795;51.232;3.764;2023-02-13T05:27:02;282.80;;;93.17;;
13445;SDS011;6795;51.232;3.764;2023-02-13T05:29:30;285.90;;;94.53;;
13445;SDS011;6795;51.232;3.764;2023-02-13T05:32:00;289.43;;;92.73;;
13445;SDS011;6795;51.232;3.764;2023-02-13T05:34:29;305.23;;;95.10;;
13445;SDS011;6795;51.232;3.764;2023-02-13T05:36:57;294.80;;;92.90;;
13445;SDS011;6795;51.232;3.764;2023-02-13T05:39:26;331.63;;;97.20;;
13445;SDS011;6795;51.232;3.764;2023-02-13T05:41:55;328.73;;;98.60;;
13445;SDS011;6795;51.232;3.764;2023-02-13T05:44:23;339.17;;;98.93;;
13445;SDS011;6795;51.232;3.764;2023-02-13T05:46:51;328.30;;;96.97;;
13445;SDS011;6795;51.232;3.764;2023-02-13T05:49:21;337.00;;;101.00;;
13445;SDS011;6795;51.232;3.764;2023-02-13T05:51:50;358.93;;;101.80;;
13445;SDS011;6795;51.232;3.764;2023-02-13T05:54:18;346.37;;;102.07;;
13445;SDS011;6795;51.232;3.764;2023-02-13T05:56:47;337.83;;;102.53;;
13445;SDS011;6795;51.232;3.764;2023-02-13T05:59:15;371.00;;;104.63;;
13445;SDS011;6795;51.232;3.764;2023-02-13T06:01:44;400.23;;;109.10;;
13445;SDS011;6795;51.232;3.764;2023-02-13T06:04:12;373.33;;;101.53;;
13445;SDS011;6795;51.232;3.764;2023-02-13T06:06:42;346.23;;;103.50;;
13445;SDS011;6795;51.232;3.764;2023-02-13T06:09:11;380.87;;;102.30;;
13445;SDS011;6795;51.232;3.764;2023-02-13T06:11:39;429.60;;;105.97;;
13445;SDS011;6795;51.232;3.764;2023-02-13T06:14:09;475.63;;;109.13;;
13445;SDS011;6795;51.232;3.764;2023-02-13T06:16:39;778.90;;;133.90;;
13445;SDS011;6795;51.232;3.764;2023-02-13T06:19:08;1153.17;;;152.27;;
13445;SDS011;6795;51.232;3.764;2023-02-13T06:21:36;1342.67;;;176.00;;
13445;SDS011;6795;51.232;3.764;2023-02-13T06:24:06;1185.53;;;146.20;;
13445;SDS011;6795;51.232;3.764;2023-02-13T06:26:35;1359.57;;;171.23;;
13445;SDS011;6795;51.232;3.764;2023-02-13T06:29:04;768.00;;;127.53;;
13445;SDS011;6795;51.232;3.764;2023-02-13T06:31:34;1002.70;;;153.27;;
13445;SDS011;6795;51.232;3.764;2023-02-13T06:34:03;1264.10;;;176.33;;
13445;SDS011;6795;51.232;3.764;2023-02-13T06:36:37;937.03;;;156.23;;
13445;SDS011;6795;51.232;3.764;2023-02-13T06:39:09;955.80;;;160.57;;
13445;SDS011;6795;51.232;3.764;2023-02-13T06:41:38;691.87;;;128.10;;
13445;SDS011;6795;51.232;3.764;2023-02-13T06:44:06;493.33;;;114.73;;
13445;SDS011;6795;51.232;3.764;2023-02-13T06:46:35;1271.93;;;164.40;;
13445;SDS011;6795;51.232;3.764;2023-02-13T06:49:03;388.47;;;105.33;;
13445;SDS011;6795;51.232;3.764;2023-02-13T06:51:32;450.37;;;107.40;;
13445;SDS011;6795;51.232;3.764;2023-02-13T06:54:02;1490.30;;;206.50;;
13445;SDS011;6795;51.232;3.764;2023-02-13T06:56:32;1330.70;;;186.83;;
13445;SDS011;6795;51.232;3.764;2023-02-13T06:59:02;1218.77;;;172.30;;
13445;SDS011;6795;51.232;3.764;2023-02-13T07:01:30;1200.23;;;185.37;;
13445;SDS011;6795;51.232;3.764;2023-02-13T07:03:59;561.90;;;127.47;;
13445;SDS011;6795;51.232;3.764;2023-02-13T07:06:29;519.33;;;116.67;;
13445;SDS011;6795;51.232;3.764;2023-02-13T07:08:59;1872.30;;;225.07;;
13445;SDS011;6795;51.232;3.764;2023-02-13T07:11:28;633.70;;;130.83;;
13445;SDS011;6795;51.232;3.764;2023-02-13T07:17:04;970.47;;;146.37;;
13445;SDS011;6795;51.232;3.764;2023-02-13T07:19:33;1305.10;;;187.30;;
13445;SDS011;6795;51.232;3.764;2023-02-13T07:22:03;582.90;;;129.67;;
13445;SDS011;6795;51.232;3.764;2023-02-13T07:24:32;880.17;;;150.40;;
13445;SDS011;6795;51.232;3.764;2023-02-13T07:27:00;556.67;;;118.83;;
13445;SDS011;6795;51.232;3.764;2023-02-13T07:29:33;747.50;;;126.87;;
13445;SDS011;6795;51.232;3.764;2023-02-13T07:32:02;925.63;;;134.20;;
13445;SDS011;6795;51.232;3.764;2023-02-13T07:34:32;1343.37;;;187.10;;
13445;SDS011;6795;51.232;3.764;2023-02-13T07:37:01;1040.90;;;139.40;;
13445;SDS011;6795;51.232;3.764;2023-02-13T07:39:30;1287.77;;;160.10;;
13445;SDS011;6795;51.232;3.764;2023-02-13T07:41:58;1144.67;;;153.73;;
13445;SDS011;6795;51.232;3.764;2023-02-13T07:47:41;1228.17;;;181.60;;
13445;SDS011;6795;51.232;3.764;2023-02-13T07:50:11;909.23;;;141.93;;
13445;SDS011;6795;51.232;3.764;2023-02-13T07:52:43;960.20;;;143.27;;
13445;SDS011;6795;51.232;3.764;2023-02-13T07:55:11;908.40;;;133.20;;
13445;SDS011;6795;51.232;3.764;2023-02-13T07:57:40;1009.67;;;152.77;;
13445;SDS011;6795;51.232;3.764;2023-02-13T08:00:09;1006.97;;;146.53;;
13445;SDS011;6795;51.232;3.764;2023-02-13T08:02:38;1019.20;;;147.20;;
13445;SDS011;6795;51.232;3.764;2023-02-13T08:05:06;967.53;;;144.47;;
13445;SDS011;6795;51.232;3.764;2023-02-13T08:07:37;826.17;;;128.47;;
13445;SDS011;6795;51.232;3.764;2023-02-13T08:10:06;854.20;;;126.90;;
13445;SDS011;6795;51.232;3.764;2023-02-13T08:12:53;825.73;;;132.30;;
13445;SDS011;6795;51.232;3.764;2023-02-13T08:15:22;896.13;;;138.20;;
13445;SDS011;6795;51.232;3.764;2023-02-13T08:17:51;747.70;;;118.57;;
13445;SDS011;6795;51.232;3.764;2023-02-13T08:20:20;821.47;;;122.30;;
13445;SDS011;6795;51.232;3.764;2023-02-13T08:22:50;905.63;;;123.17;;
13445;SDS011;6795;51.232;3.764;2023-02-13T08:25:19;837.13;;;124.27;;
13445;SDS011;6795;51.232;3.764;2023-02-13T08:27:47;833.10;;;127.73;;
13445;SDS011;6795;51.232;3.764;2023-02-13T08:30:16;771.17;;;120.63;;
13445;SDS011;6795;51.232;3.764;2023-02-13T08:32:44;843.77;;;120.47;;
13445;SDS011;6795;51.232;3.764;2023-02-13T08:35:20;840.27;;;127.77;;
13445;SDS011;6795;51.232;3.764;2023-02-13T08:37:53;817.53;;;114.97;;
13445;SDS011;6795;51.232;3.764;2023-02-13T08:40:22;781.80;;;115.33;;
13445;SDS011;6795;51.232;3.764;2023-02-13T08:42:51;743.70;;;115.20;;
13445;SDS011;6795;51.232;3.764;2023-02-13T08:45:22;754.70;;;116.30;;
13445;SDS011;6795;51.232;3.764;2023-02-13T08:47:54;545.97;;;100.60;;
13445;SDS011;6795;51.232;3.764;2023-02-13T08:50:23;736.23;;;110.10;;
13445;SDS011;6795;51.232;3.764;2023-02-13T08:52:54;716.73;;;108.67;;
13445;SDS011;6795;51.232;3.764;2023-02-13T08:55:23;723.80;;;103.90;;
13445;SDS011;6795;51.232;3.764;2023-02-13T08:57:52;579.73;;;96.70;;
13445;SDS011;6795;51.232;3.764;2023-02-13T09:00:20;526.07;;;99.37;;
13445;SDS011;6795;51.232;3.764;2023-02-13T09:02:49;568.43;;;95.20;;
13445;SDS011;6795;51.232;3.764;2023-02-13T09:05:17;471.33;;;80.77;;
13445;SDS011;6795;51.232;3.764;2023-02-13T09:07:46;458.10;;;66.30;;
13445;SDS011;6795;51.232;3.764;2023-02-13T09:10:16;529.50;;;76.80;;
13445;SDS011;6795;51.232;3.764;2023-02-13T09:12:50;306.80;;;60.97;;
13445;SDS011;6795;51.232;3.764;2023-02-13T09:15:19;426.48;;;70.30;;
13445;SDS011;6795;51.232;3.764;2023-02-13T09:17:48;300.48;;;68.35;;
13445;SDS011;6795;51.232;3.764;2023-02-13T09:20:17;329.02;;;65.88;;
13445;SDS011;6795;51.232;3.764;2023-02-13T09:22:45;421.42;;;69.35;;
13445;SDS011;6795;51.232;3.764;2023-02-13T09:25:15;487.95;;;79.25;;
13445;SDS011;6795;51.232;3.764;2023-02-13T09:27:45;290.52;;;66.85;;
13445;SDS011;6795;51.232;3.764;2023-02-13T09:30:14;266.25;;;66.38;;
13445;SDS011;6795;51.232;3.764;2023-02-13T09:32:49;228.95;;;62.67;;
13445;SDS011;6795;51.232;3.764;2023-02-13T09:35:18;199.68;;;64.25;;
13445;SDS011;6795;51.232;3.764;2023-02-13T09:37:47;175.80;;;63.88;;
13445;SDS011;6795;51.232;3.764;2023-02-13T09:40:29;156.90;;;64.60;;
13445;SDS011;6795;51.232;3.764;2023-02-13T09:43:04;155.70;;;63.72;;
13445;SDS011;6795;51.232;3.764;2023-02-13T09:45:34;159.70;;;64.90;;
13445;SDS011;6795;51.232;3.764;2023-02-13T09:48:05;165.60;;;67.65;;
13445;SDS011;6795;51.232;3.764;2023-02-13T09:50:37;157.32;;;70.47;;
13445;SDS011;6795;51.232;3.764;2023-02-13T09:53:05;151.30;;;68.90;;
13445;SDS011;6795;51.232;3.764;2023-02-13T09:55:36;143.98;;;64.25;;
13445;SDS011;6795;51.232;3.764;2023-02-13T09:58:21;148.80;;;67.43;;
13445;SDS011;6795;51.232;3.764;2023-02-13T10:01:00;135.63;;;64.88;;
13445;SDS011;6795;51.232;3.764;2023-02-13T10:03:33;122.53;;;61.60;;
13445;SDS011;6795;51.232;3.764;2023-02-13T10:06:09;116.38;;;58.42;;
13445;SDS011;6795;51.232;3.764;2023-02-13T10:08:48;108.85;;;56.60;;
13445;SDS011;6795;51.232;3.764;2023-02-13T10:11:47;113.45;;;60.10;;
13445;SDS011;6795;51.232;3.764;2023-02-13T10:14:34;119.63;;;61.58;;
13445;SDS011;6795;51.232;3.764;2023-02-13T10:17:12;112.63;;;60.30;;
13445;SDS011;6795;51.232;3.764;2023-02-13T10:19:45;105.93;;;57.08;;
13445;SDS011;6795;51.232;3.764;2023-02-13T10:22:17;112.45;;;58.42;;
13445;SDS011;6795;51.232;3.764;2023-02-13T10:24:53;89.20;;;49.67;;
13445;SDS011;6795;51.232;3.764;2023-02-13T10:27:29;88.70;;;48.28;;
13445;SDS011;6795;51.232;3.764;2023-02-13T10:30:02;87.97;;;48.80;;
13445;SDS011;6795;51.232;3.764;2023-02-13T10:32:36;90.28;;;48.92;;
13445;SDS011;6795;51.232;3.764;2023-02-13T10:35:20;80.05;;;44.97;;
13445;SDS011;6795;51.232;3.764;2023-02-13T10:37:54;80.18;;;44.53;;
13445;SDS011;6795;51.232;3.764;2023-02-13T10:40:28;71.68;;;39.28;;
13445;SDS011;6795;51.232;3.764;2023-02-13T10:43:02;72.70;;;38.35;;
13445;SDS011;6795;51.232;3.764;2023-02-13T10:45:42;67.32;;;38.22;;
13445;SDS011;6795;51.232;3.764;2023-02-13T10:48:28;53.85;;;30.85;;
13445;SDS011;6795;51.232;3.764;2023-02-13T10:51:11;55.92;;;28.73;;
13445;SDS011;6795;51.232;3.764;2023-02-13T10:53:49;45.60;;;26.42;;
13445;SDS011;6795;51.232;3.764;2023-02-13T10:56:26;42.67;;;26.65;;
13445;SDS011;6795;51.232;3.764;2023-02-13T10:59:07;41.22;;;24.10;;
13445;SDS011;6795;51.232;3.764;2023-02-13T11:01:46;35.78;;;22.90;;
13445;SDS011;6795;51.232;3.764;2023-02-13T11:04:18;45.25;;;23.58;;
13445;SDS011;6795;51.232;3.764;2023-02-13T11:06:49;43.88;;;22.58;;
13445;SDS011;6795;51.232;3.764;2023-02-13T11:09:22;45.80;;;24.30;;
13445;SDS011;6795;51.232;3.764;2023-02-13T11:11:51;36.47;;;22.55;;
13445;SDS011;6795;51.232;3.764;2023-02-13T11:14:22;34.20;;;22.40;;
13445;SDS011;6795;51.232;3.764;2023-02-13T11:16:53;34.78;;;22.67;;
13445;SDS011;6795;51.232;3.764;2023-02-13T11:19:25;33.75;;;23.05;;
13445;SDS011;6795;51.232;3.764;2023-02-13T11:22:00;28.75;;;18.88;;
13445;SDS011;6795;51.232;3.764;2023-02-13T11:24:31;27.10;;;18.00;;
13445;SDS011;6795;51.232;3.764;2023-02-13T11:27:00;22.50;;;15.07;;
13445;SDS011;6795;51.232;3.764;2023-02-13T11:29:36;28.65;;;17.20;;
13445;SDS011;6795;51.232;3.764;2023-02-13T11:32:20;27.00;;;18.15;;
13445;SDS011;6795;51.232;3.764;2023-02-13T11:34:51;29.42;;;19.05;;
13445;SDS011;6795;51.232;3.764;2023-02-13T11:37:22;24.95;;;16.38;;
13445;SDS011;6795;51.232;3.764;2023-02-13T11:39:53;28.05;;;18.45;;
13445;SDS011;6795;51.232;3.764;2023-02-13T11:42:27;27.80;;;18.05;;
13445;SDS011;6795;51.232;3.764;2023-02-13T11:44:59;33.38;;;23.67;;
13445;SDS011;6795;51.232;3.764;2023-02-13T11:47:34;34.85;;;24.60;;
13445;SDS011;6795;51.232;3.764;2023-02-13T11:50:06;41.50;;;27.80;;
13445;SDS011;6795;51.232;3.764;2023-02-13T11:52:53;44.65;;;28.83;;
13445;SDS011;6795;51.232;3.764;2023-02-13T11:55:25;40.42;;;27.42;;
13445;SDS011;6795;51.232;3.764;2023-02-13T11:57:56;44.15;;;28.00;;
13445;SDS011;6795;51.232;3.764;2023-02-13T12:00:31;44.80;;;29.48;;
13445;SDS011;6795;51.232;3.764;2023-02-13T12:03:25;34.90;;;24.35;;
13445;SDS011;6795;51.232;3.764;2023-02-13T12:05:59;33.38;;;21.92;;
13445;SDS011;6795;51.232;3.764;2023-02-13T12:08:30;36.00;;;22.75;;
13445;SDS011;6795;51.232;3.764;2023-02-13T12:11:01;37.08;;;23.00;;
13445;SDS011;6795;51.232;3.764;2023-02-13T12:13:43;34.00;;;20.73;;
13445;SDS011;6795;51.232;3.764;2023-02-13T12:16:16;30.08;;;19.33;;
13445;SDS011;6795;51.232;3.764;2023-02-13T12:18:55;28.33;;;19.27;;
13445;SDS011;6795;51.232;3.764;2023-02-13T12:21:30;28.52;;;19.63;;
13445;SDS011;6795;51.232;3.764;2023-02-13T12:24:10;30.88;;;20.10;;
13445;SDS011;6795;51.232;3.764;2023-02-13T12:26:48;31.73;;;21.08;;
13445;SDS011;6795;51.232;3.764;2023-02-13T12:29:25;30.88;;;18.90;;
13445;SDS011;6795;51.232;3.764;2023-02-13T12:32:18;23.63;;;17.20;;
13445;SDS011;6795;51.232;3.764;2023-02-13T12:38:03;29.65;;;20.02;;
13445;SDS011;6795;51.232;3.764;2023-02-13T12:44:05;25.63;;;16.88;;
13445;SDS011;6795;51.232;3.764;2023-02-13T12:46:51;22.73;;;15.25;;
13445;SDS011;6795;51.232;3.764;2023-02-13T12:52:24;23.77;;;15.68;;
13445;SDS011;6795;51.232;3.764;2023-02-13T12:55:09;22.40;;;14.15;;
13445;SDS011;6795;51.232;3.764;2023-02-13T12:58:06;24.15;;;16.40;;
13445;SDS011;6795;51.232;3.764;2023-02-13T13:00:48;21.77;;;13.82;;
13445;SDS011;6795;51.232;3.764;2023-02-13T13:03:27;21.30;;;14.32;;
13445;SDS011;6795;51.232;3.764;2023-02-13T13:06:15;22.13;;;15.25;;
13445;SDS011;6795;51.232;3.764;2023-02-13T13:09:01;23.88;;;15.75;;
13445;SDS011;6795;51.232;3.764;2023-02-13T13:11:43;23.67;;;15.75;;
13445;SDS011;6795;51.232;3.764;2023-02-13T13:14:31;23.55;;;14.77;;
13445;SDS011;6795;51.232;3.764;2023-02-13T13:17:07;22.98;;;15.80;;
13445;SDS011;6795;51.232;3.764;2023-02-13T13:19:51;23.45;;;15.85;;
13445;SDS011;6795;51.232;3.764;2023-02-13T13:22:30;21.88;;;16.08;;
13445;SDS011;6795;51.232;3.764;2023-02-13T13:25:08;23.23;;;15.30;;
13445;SDS011;6795;51.232;3.764;2023-02-13T13:27:46;22.92;;;15.27;;
13445;SDS011;6795;51.232;3.764;2023-02-13T13:30:19;24.17;;;15.55;;
13445;SDS011;6795;51.232;3.764;2023-02-13T13:32:51;24.55;;;15.43;;
13445;SDS011;6795;51.232;3.764;2023-02-13T13:35:28;24.00;;;14.70;;
13445;SDS011;6795;51.232;3.764;2023-02-13T13:38:00;21.00;;;14.63;;
13445;SDS011;6795;51.232;3.764;2023-02-13T13:40:36;22.95;;;15.00;;
13445;SDS011;6795;51.232;3.764;2023-02-13T13:43:14;23.52;;;15.65;;
13445;SDS011;6795;51.232;3.764;2023-02-13T13:45:51;24.50;;;15.85;;
13445;SDS011;6795;51.232;3.764;2023-02-13T13:48:41;21.70;;;15.85;;
13445;SDS011;6795;51.232;3.764;2023-02-13T13:51:19;27.33;;;16.60;;
13445;SDS011;6795;51.232;3.764;2023-02-13T13:57:05;23.23;;;15.10;;
13445;SDS011;6795;51.232;3.764;2023-02-13T14:03:12;24.77;;;16.73;;
13445;SDS011;6795;51.232;3.764;2023-02-13T14:06:00;22.67;;;15.43;;
13445;SDS011;6795;51.232;3.764;2023-02-13T14:11:36;22.23;;;15.30;;
13445;SDS011;6795;51.232;3.764;2023-02-13T14:17:14;25.58;;;15.55;;
13445;SDS011;6795;51.232;3.764;2023-02-13T14:19:45;24.98;;;16.33;;
13445;SDS011;6795;51.232;3.764;2023-02-13T14:22:25;23.10;;;15.13;;
13445;SDS011;6795;51.232;3.764;2023-02-13T14:25:01;21.77;;;15.68;;
13445;SDS011;6795;51.232;3.764;2023-02-13T14:27:33;22.38;;;15.70;;
13445;SDS011;6795;51.232;3.764;2023-02-13T14:30:04;27.23;;;15.80;;
13445;SDS011;6795;51.232;3.764;2023-02-13T14:32:52;21.23;;;14.65;;
13445;SDS011;6795;51.232;3.764;2023-02-13T14:35:22;20.33;;;14.52;;
13445;SDS011;6795;51.232;3.764;2023-02-13T14:37:54;23.33;;;16.00;;
13445;SDS011;6795;51.232;3.764;2023-02-13T14:43:25;19.35;;;14.55;;
13445;SDS011;6795;51.232;3.764;2023-02-13T14:46:06;21.58;;;15.18;;
13445;SDS011;6795;51.232;3.764;2023-02-13T14:48:51;18.98;;;13.93;;
13445;SDS011;6795;51.232;3.764;2023-02-13T14:51:25;21.23;;;14.00;;
13445;SDS011;6795;51.232;3.764;2023-02-13T14:54:00;22.52;;;16.08;;
13445;SDS011;6795;51.232;3.764;2023-02-13T14:56:32;27.00;;;15.95;;
13445;SDS011;6795;51.232;3.764;2023-02-13T14:59:07;23.33;;;15.20;;
13445;SDS011;6795;51.232;3.764;2023-02-13T15:01:42;20.52;;;14.85;;
13445;SDS011;6795;51.232;3.764;2023-02-13T15:04:20;21.42;;;14.57;;
13445;SDS011;6795;51.232;3.764;2023-02-13T15:06:53;22.73;;;14.63;;
13445;SDS011;6795;51.232;3.764;2023-02-13T15:09:29;21.27;;;13.77;;
13445;SDS011;6795;51.232;3.764;2023-02-13T15:11:59;22.00;;;13.98;;
13445;SDS011;6795;51.232;3.764;2023-02-13T15:14:33;22.27;;;13.95;;
13445;SDS011;6795;51.232;3.764;2023-02-13T15:17:07;21.27;;;13.40;;
13445;SDS011;6795;51.232;3.764;2023-02-13T15:19:43;22.75;;;14.63;;
13445;SDS011;6795;51.232;3.764;2023-02-13T15:22:16;24.17;;;15.10;;
13445;SDS011;6795;51.232;3.764;2023-02-13T15:24:48;20.30;;;14.05;;
13445;SDS011;6795;51.232;3.764;2023-02-13T15:27:18;21.40;;;14.30;;
13445;SDS011;6795;51.232;3.764;2023-02-13T15:29:54;22.95;;;14.75;;
13445;SDS011;6795;51.232;3.764;2023-02-13T15:32:29;22.73;;;14.35;;
13445;SDS011;6795;51.232;3.764;2023-02-13T15:35:01;19.45;;;12.68;;
13445;SDS011;6795;51.232;3.764;2023-02-13T15:37:36;22.38;;;14.10;;
13445;SDS011;6795;51.232;3.764;2023-02-13T15:40:12;20.60;;;13.93;;